sensor_id;sensor_type;location;lat;lon;timestamp;pressure;altitude;pressure_sealevel;temperature;humidity
70815;BME280;58428;49.478;10.986;2023-02-01T00:02:17;98852.50;;;4.58;100.00
70815;BME280;58428;49.478;10.986;2023-02-01T00:04:42;98850.13;;;4.57;100.00
70815;BME280;58428;49.478;10.986;2023-02-01T00:07:08;98842.09;;;4.57;100.00
70815;BME280;58428;49.478;10.986;2023-02-01T00:09:33;98847.47;;;4.57;100.00
70815;BME280;58428;49.478;10.986;2023-02-01T00:11:59;98844.00;;;4.51;100.00
70815;BME280;58428;49.478;10.986;2023-02-01T00:14:27;98834.09;;;4.52;100.00
70815;BME280;58428;49.478;10.986;2023-02-01T00:16:52;98842.09;;;4.57;100.00
70815;BME280;58428;49.478;10.986;2023-02-01T00:19:18;98838.06;;;4.59;100.00
70815;BME280;58428;49.478;10.986;2023-02-01T00:21:46;98835.63;;;4.63;100.00
70815;BME280;58428;49.478;10.986;2023-02-01T00:24:12;98842.31;;;4.65;100.00
70815;BME280;58428;49.478;10.986;2023-02-01T00:26:41;98839.31;;;4.72;100.00
70815;BME280;58428;49.478;10.986;2023-02-01T00:29:14;98842.25;;;4.70;100.00
70815;BME280;58428;49.478;10.986;2023-02-01T00:31:41;98839.56;;;4.75;100.00
70815;BME280;58428;49.478;10.986;2023-02-01T00:34:11;98840.41;;;4.66;100.00
70815;BME280;58428;49.478;10.986;2023-02-01T00:36:41;98829.16;;;4.69;100.00
70815;BME280;58428;49.478;10.986;2023-02-01T00:39:07;98831.84;;;4.69;100.00
70815;BME280;58428;49.478;10.986;2023-02-01T00:41:33;98832.91;;;4.68;100.00
70815;BME280;58428;49.478;10.986;2023-02-01T00:43:58;98833.69;;;4.73;100.00
70815;BME280;58428;49.478;10.986;2023-02-01T00:46:27;98845.97;;;4.79;100.00
70815;BME280;58428;49.478;10.986;2023-02-01T00:48:53;98836.03;;;4.79;100.00
70815;BME280;58428;49.478;10.986;2023-02-01T00:51:23;98835.50;;;4.82;100.00
70815;BME280;58428;49.478;10.986;2023-02-01T00:53:52;98834.97;;;4.80;100.00
70815;BME280;58428;49.478;10.986;2023-02-01T00:56:20;98829.34;;;4.82;100.00
70815;BME280;58428;49.478;10.986;2023-02-01T00:58:45;98826.41;;;4.78;100.00
70815;BME280;58428;49.478;10.986;2023-02-01T01:01:25;98825.31;;;4.79;100.00
70815;BME280;58428;49.478;10.986;2023-02-01T01:03:54;98809.22;;;4.79;100.00
70815;BME280;58428;49.478;10.986;2023-02-01T01:06:31;98813.56;;;4.75;100.00
70815;BME280;58428;49.478;10.986;2023-02-01T01:09:02;98824.53;;;4.79;100.00
70815;BME280;58428;49.478;10.986;2023-02-01T01:11:31;98817.59;;;4.73;100.00
70815;BME280;58428;49.478;10.986;2023-02-01T01:13:58;98821.56;;;4.80;100.00
70815;BME280;58428;49.478;10.986;2023-02-01T01:16:27;98818.63;;;4.82;100.00
70815;BME280;58428;49.478;10.986;2023-02-01T01:18:54;98813.25;;;4.82;100.00
70815;BME280;58428;49.478;10.986;2023-02-01T01:21:20;98822.63;;;4.79;100.00
70815;BME280;58428;49.478;10.986;2023-02-01T01:23:47;98816.47;;;4.79;100.00
70815;BME280;58428;49.478;10.986;2023-02-01T01:26:16;98827.47;;;4.77;100.00
70815;BME280;58428;49.478;10.986;2023-02-01T01:28:43;98822.69;;;4.75;100.00
70815;BME280;58428;49.478;10.986;2023-02-01T01:31:10;98823.22;;;4.72;100.00
70815;BME280;58428;49.478;10.986;2023-02-01T01:33:36;98825.44;;;4.65;100.00
70815;BME280;58428;49.478;10.986;2023-02-01T01:36:04;98825.44;;;4.65;100.00
70815;BME280;58428;49.478;10.986;2023-02-01T01:38:31;98829.38;;;4.72;100.00
70815;BME280;58428;49.478;10.986;2023-02-01T01:40:57;98820.53;;;4.72;100.00
70815;BME280;58428;49.478;10.986;2023-02-01T01:46:15;98824.31;;;4.71;100.00
70815;BME280;58428;49.478;10.986;2023-02-01T01:48:41;98812.50;;;4.72;100.00
70815;BME280;58428;49.478;10.986;2023-02-01T01:51:10;98813.88;;;4.69;100.00
70815;BME280;58428;49.478;10.986;2023-02-01T01:53:43;98807.16;;;4.72;100.00
70815;BME280;58428;49.478;10.986;2023-02-01T01:56:11;98806.34;;;4.71;100.00
70815;BME280;58428;49.478;10.986;2023-02-01T01:58:37;98803.94;;;4.70;100.00
70815;BME280;58428;49.478;10.986;2023-02-01T02:01:03;98797.22;;;4.72;100.00
70815;BME280;58428;49.478;10.986;2023-02-01T02:03:35;98797.47;;;4.75;100.00
70815;BME280;58428;49.478;10.986;2023-02-01T02:06:05;98805.50;;;4.80;100.00
70815;BME280;58428;49.478;10.986;2023-02-01T02:08:35;98801.97;;;4.85;100.00
70815;BME280;58428;49.478;10.986;2023-02-01T02:11:04;98805.44;;;4.85;100.00
70815;BME280;58428;49.478;10.986;2023-02-01T02:13:34;98805.16;;;4.87;100.00
70815;BME280;58428;49.478;10.986;2023-02-01T02:18:48;98801.34;;;4.93;100.00
70815;BME280;58428;49.478;10.986;2023-02-01T02:24:38;98790.09;;;4.96;100.00
70815;BME280;58428;49.478;10.986;2023-02-01T02:35:47;98783.78;;;5.10;100.00
70815;BME280;58428;49.478;10.986;2023-02-01T02:41:18;98787.63;;;4.99;100.00
70815;BME280;58428;49.478;10.986;2023-02-01T02:44:10;98773.41;;;4.99;100.00
70815;BME280;58428;49.478;10.986;2023-02-01T02:46:59;98788.75;;;4.93;100.00
70815;BME280;58428;49.478;10.986;2023-02-01T02:50:15;98785.53;;;4.91;100.00
70815;BME280;58428;49.478;10.986;2023-02-01T02:53:14;98793.66;;;4.81;100.00
70815;BME280;58428;49.478;10.986;2023-02-01T02:55:59;98783.47;;;4.83;100.00
70815;BME280;58428;49.478;10.986;2023-02-01T02:58:45;98775.66;;;4.92;100.00
70815;BME280;58428;49.478;10.986;2023-02-01T03:01:30;98770.50;;;4.95;100.00
70815;BME280;58428;49.478;10.986;2023-02-01T03:04:15;98760.28;;;4.97;100.00
70815;BME280;58428;49.478;10.986;2023-02-01T03:06:43;98765.19;;;4.90;100.00
70815;BME280;58428;49.478;10.986;2023-02-01T03:09:14;98759.56;;;4.92;100.00
70815;BME280;58428;49.478;10.986;2023-02-01T03:11:45;98754.50;;;4.85;100.00
70815;BME280;58428;49.478;10.986;2023-02-01T03:14:32;98740.38;;;4.80;100.00
70815;BME280;58428;49.478;10.986;2023-02-01T03:17:22;98735.81;;;4.75;100.00
70815;BME280;58428;49.478;10.986;2023-02-01T03:19:51;98732.34;;;4.75;100.00
70815;BME280;58428;49.478;10.986;2023-02-01T03:22:27;98730.75;;;4.74;100.00
70815;BME280;58428;49.478;10.986;2023-02-01T03:25:06;98748.53;;;4.65;100.00
70815;BME280;58428;49.478;10.986;2023-02-01T03:27:42;98750.34;;;4.70;100.00
70815;BME280;58428;49.478;10.986;2023-02-01T03:30:17;98753.56;;;4.72;100.00
70815;BME280;58428;49.478;10.986;2023-02-01T03:32:47;98745.56;;;4.67;100.00
70815;BME280;58428;49.478;10.986;2023-02-01T03:35:44;98724.88;;;4.72;100.00
70815;BME280;58428;49.478;10.986;2023-02-01T03:38:48;98729.44;;;4.72;100.00
70815;BME280;58428;49.478;10.986;2023-02-01T03:41:17;98735.56;;;4.77;100.00
70815;BME280;58428;49.478;10.986;2023-02-01T03:46:25;98741.19;;;4.75;100.00
70815;BME280;58428;49.478;10.986;2023-02-01T03:48:53;98740.41;;;4.75;100.00
70815;BME280;58428;49.478;10.986;2023-02-01T03:51:21;98732.63;;;4.74;100.00
70815;BME280;58428;49.478;10.986;2023-02-01T03:53:48;98722.41;;;4.80;100.00
70815;BME280;58428;49.478;10.986;2023-02-01T03:56:18;98724.81;;;4.82;100.00
70815;BME280;58428;49.478;10.986;2023-02-01T03:58:44;98722.13;;;4.82;100.00
70815;BME280;58428;49.478;10.986;2023-02-01T04:01:29;98714.00;;;4.92;100.00
70815;BME280;58428;49.478;10.986;2023-02-01T04:04:00;98710.78;;;4.90;100.00
70815;BME280;58428;49.478;10.986;2023-02-01T04:06:26;98714.53;;;4.89;100.00
70815;BME280;58428;49.478;10.986;2023-02-01T04:08:51;98705.69;;;4.88;100.00
70815;BME280;58428;49.478;10.986;2023-02-01T04:11:17;98704.09;;;4.87;100.00
70815;BME280;58428;49.478;10.986;2023-02-01T04:13:43;98704.59;;;4.89;100.00
70815;BME280;58428;49.478;10.986;2023-02-01T04:16:09;98700.84;;;4.90;100.00
70815;BME280;58428;49.478;10.986;2023-02-01T04:18:34;98704.09;;;4.87;100.00
70815;BME280;58428;49.478;10.986;2023-02-01T04:21:00;98710.31;;;4.83;100.00
70815;BME280;58428;49.478;10.986;2023-02-01T04:23:28;98711.63;;;4.85;100.00
70815;BME280;58428;49.478;10.986;2023-02-01T04:25:53;98718.06;;;4.84;100.00
70815;BME280;58428;49.478;10.986;2023-02-01T04:28:20;98710.88;;;4.80;100.00
70815;BME280;58428;49.478;10.986;2023-02-01T04:30:46;98716.53;;;4.78;100.00
70815;BME280;58428;49.478;10.986;2023-02-01T04:33:11;98707.09;;;4.81;100.00
70815;BME280;58428;49.478;10.986;2023-02-01T04:35:40;98702.22;;;4.88;100.00
70815;BME280;58428;49.478;10.986;2023-02-01T04:38:05;98704.44;;;4.81;100.00
70815;BME280;58428;49.478;10.986;2023-02-01T04:40:35;98704.53;;;4.71;100.00
70815;BME280;58428;49.478;10.986;2023-02-01T04:43:03;98698.72;;;4.59;100.00
70815;BME280;58428;49.478;10.986;2023-02-01T04:45:46;98702.78;;;4.57;100.00
70815;BME280;58428;49.478;10.986;2023-02-01T04:48:12;98695.56;;;4.52;100.00
70815;BME280;58428;49.478;10.986;2023-02-01T04:50:38;98703.13;;;4.45;100.00
70815;BME280;58428;49.478;10.986;2023-02-01T04:53:12;98705.00;;;4.45;100.00
70815;BME280;58428;49.478;10.986;2023-02-01T04:55:42;98693.50;;;4.44;100.00
70815;BME280;58428;49.478;10.986;2023-02-01T04:58:08;98695.91;;;4.46;100.00
70815;BME280;58428;49.478;10.986;2023-02-01T05:00:34;98700.16;;;4.47;100.00
70815;BME280;58428;49.478;10.986;2023-02-01T05:02:59;98709.81;;;4.48;100.00
70815;BME280;58428;49.478;10.986;2023-02-01T05:05:27;98707.97;;;4.43;100.00
70815;BME280;58428;49.478;10.986;2023-02-01T05:07:53;98691.31;;;4.46;100.00
70815;BME280;58428;49.478;10.986;2023-02-01T05:10:19;98705.00;;;4.45;100.00
70815;BME280;58428;49.478;10.986;2023-02-01T05:12:46;98708.75;;;4.44;100.00
70815;BME280;58428;49.478;10.986;2023-02-01T05:15:30;98709.09;;;4.38;100.00
70815;BME280;58428;49.478;10.986;2023-02-01T05:17:58;98703.44;;;4.39;100.00
70815;BME280;58428;49.478;10.986;2023-02-01T05:20:24;98699.41;;;4.41;100.00
70815;BME280;58428;49.478;10.986;2023-02-01T05:22:50;98706.03;;;4.49;100.00
70815;BME280;58428;49.478;10.986;2023-02-01T05:25:16;98707.91;;;4.53;100.00
70815;BME280;58428;49.478;10.986;2023-02-01T05:27:44;98703.34;;;4.49;100.00
70815;BME280;58428;49.478;10.986;2023-02-01T05:30:11;98702.03;;;4.46;100.00
70815;BME280;58428;49.478;10.986;2023-02-01T05:32:38;98703.09;;;4.50;100.00
70815;BME280;58428;49.478;10.986;2023-02-01T05:35:04;98707.63;;;4.55;100.00
70815;BME280;58428;49.478;10.986;2023-02-01T05:37:29;98713.50;;;4.57;100.00
70815;BME280;58428;49.478;10.986;2023-02-01T05:39:56;98717.75;;;4.58;100.00
70815;BME280;58428;49.478;10.986;2023-02-01T05:42:21;98718.91;;;4.47;100.00
70815;BME280;58428;49.478;10.986;2023-02-01T05:44:47;98715.44;;;4.46;100.00
70815;BME280;58428;49.478;10.986;2023-02-01T05:47:13;98719.22;;;4.40;100.00
70815;BME280;58428;49.478;10.986;2023-02-01T05:49:39;98704.81;;;4.37;100.00
70815;BME280;58428;49.478;10.986;2023-02-01T05:52:05;98709.09;;;4.38;100.00
70815;BME280;58428;49.478;10.986;2023-02-01T05:54:30;98707.75;;;4.35;100.00
70815;BME280;58428;49.478;10.986;2023-02-01T05:56:56;98716.91;;;4.29;100.00
70815;BME280;58428;49.478;10.986;2023-02-01T05:59:21;98699.28;;;4.23;100.00
70815;BME280;58428;49.478;10.986;2023-02-01T06:01:47;98703.38;;;4.11;100.00
70815;BME280;58428;49.478;10.986;2023-02-01T06:04:12;98694.31;;;4.02;100.00
70815;BME280;58428;49.478;10.986;2023-02-01T06:06:38;98672.38;;;4.05;100.00
70815;BME280;58428;49.478;10.986;2023-02-01T06:09:03;98667.88;;;3.96;100.00
70815;BME280;58428;49.478;10.986;2023-02-01T06:11:29;98671.66;;;3.90;100.00
70815;BME280;58428;49.478;10.986;2023-02-01T06:13:56;98671.41;;;3.86;100.00
70815;BME280;58428;49.478;10.986;2023-02-01T06:16:22;98677.84;;;3.85;100.00
70815;BME280;58428;49.478;10.986;2023-02-01T06:18:47;98674.34;;;3.90;100.00
70815;BME280;58428;49.478;10.986;2023-02-01T06:21:13;98683.22;;;3.80;100.00
70815;BME280;58428;49.478;10.986;2023-02-01T06:23:39;98672.25;;;3.77;100.00
70815;BME280;58428;49.478;10.986;2023-02-01T06:26:07;98674.41;;;3.80;100.00
70815;BME280;58428;49.478;10.986;2023-02-01T06:28:36;98676.75;;;3.86;100.00
70815;BME280;58428;49.478;10.986;2023-02-01T06:31:06;98676.22;;;3.89;100.00
70815;BME280;58428;49.478;10.986;2023-02-01T06:33:35;98666.78;;;3.97;100.00
70815;BME280;58428;49.478;10.986;2023-02-01T06:36:03;98669.47;;;3.97;100.00
70815;BME280;58428;49.478;10.986;2023-02-01T06:38:30;98681.56;;;3.89;100.00
70815;BME280;58428;49.478;10.986;2023-02-01T06:40:58;98680.22;;;3.87;100.00
70815;BME280;58428;49.478;10.986;2023-02-01T06:43:25;98683.16;;;3.90;100.00
70815;BME280;58428;49.478;10.986;2023-02-01T06:48:36;98687.16;;;3.93;100.00
70815;BME280;58428;49.478;10.986;2023-02-01T06:51:03;98669.25;;;3.93;100.00
70815;BME280;58428;49.478;10.986;2023-02-01T06:53:28;98662.84;;;3.89;100.00
70815;BME280;58428;49.478;10.986;2023-02-01T06:55:56;98676.50;;;3.83;100.00
70815;BME280;58428;49.478;10.986;2023-02-01T06:58:23;98688.50;;;3.90;100.00
70815;BME280;58428;49.478;10.986;2023-02-01T07:00:50;98684.78;;;3.91;100.00
70815;BME280;58428;49.478;10.986;2023-02-01T07:03:19;98688.25;;;3.92;100.00
70815;BME280;58428;49.478;10.986;2023-02-01T07:05:44;98688.50;;;3.95;100.00
70815;BME280;58428;49.478;10.986;2023-02-01T07:08:09;98682.31;;;3.95;100.00
70815;BME280;58428;49.478;10.986;2023-02-01T07:10:35;98687.66;;;4.00;100.00
70815;BME280;58428;49.478;10.986;2023-02-01T07:13:00;98682.81;;;4.02;100.00
70815;BME280;58428;49.478;10.986;2023-02-01T07:15:26;98682.06;;;3.96;100.00
70815;BME280;58428;49.478;10.986;2023-02-01T07:17:55;98681.97;;;4.06;100.00
70815;BME280;58428;49.478;10.986;2023-02-01T07:20:21;98696.47;;;4.05;100.00
70815;BME280;58428;49.478;10.986;2023-02-01T07:22:47;98683.59;;;4.07;100.00
70815;BME280;58428;49.478;10.986;2023-02-01T07:25:13;98683.59;;;4.07;100.00
70815;BME280;58428;49.478;10.986;2023-02-01T07:27:39;98686.75;;;4.14;100.00
70815;BME280;58428;49.478;10.986;2023-02-01T07:30:05;98687.53;;;4.19;100.00
70815;BME280;58428;49.478;10.986;2023-02-01T07:32:32;98686.13;;;4.27;100.00
70815;BME280;58428;49.478;10.986;2023-02-01T07:34:58;98689.88;;;4.26;100.00
70815;BME280;58428;49.478;10.986;2023-02-01T07:37:25;98686.63;;;4.34;100.00
70815;BME280;58428;49.478;10.986;2023-02-01T07:39:53;98690.09;;;4.34;100.00
70815;BME280;58428;49.478;10.986;2023-02-01T07:42:19;98692.19;;;4.42;100.00
70815;BME280;58428;49.478;10.986;2023-02-01T07:44:45;98691.84;;;4.48;100.00
70815;BME280;58428;49.478;10.986;2023-02-01T07:47:12;98686.19;;;4.55;100.00
70815;BME280;58428;49.478;10.986;2023-02-01T07:49:37;98676.00;;;4.57;100.00
70815;BME280;58428;49.478;10.986;2023-02-01T07:52:02;98674.72;;;4.49;100.00
70815;BME280;58428;49.478;10.986;2023-02-01T07:54:28;98688.91;;;4.45;100.00
70815;BME280;58428;49.478;10.986;2023-02-01T07:56:53;98671.81;;;4.41;100.00
70815;BME280;58428;49.478;10.986;2023-02-01T07:59:19;98669.66;;;4.43;100.00
70815;BME280;58428;49.478;10.986;2023-02-01T08:01:45;98662.72;;;4.42;100.00
70815;BME280;58428;49.478;10.986;2023-02-01T08:04:11;98677.47;;;4.39;100.00
70815;BME280;58428;49.478;10.986;2023-02-01T08:06:39;98668.09;;;4.37;100.00
70815;BME280;58428;49.478;10.986;2023-02-01T08:09:05;98665.41;;;4.37;100.00
70815;BME280;58428;49.478;10.986;2023-02-01T08:11:36;98664.88;;;4.40;100.00
70815;BME280;58428;49.478;10.986;2023-02-01T08:14:05;98662.44;;;4.43;100.00
70815;BME280;58428;49.478;10.986;2023-02-01T08:16:32;98673.63;;;4.50;100.00
70815;BME280;58428;49.478;10.986;2023-02-01T08:19:00;98672.50;;;4.56;100.00
70815;BME280;58428;49.478;10.986;2023-02-01T08:21:27;98664.19;;;4.58;100.00
70815;BME280;58428;49.478;10.986;2023-02-01T08:24:02;98657.44;;;4.60;100.00
70815;BME280;58428;49.478;10.986;2023-02-01T08:26:29;98652.09;;;4.60;100.00
70815;BME280;58428;49.478;10.986;2023-02-01T08:28:57;98664.34;;;4.66;100.00
70815;BME280;58428;49.478;10.986;2023-02-01T08:31:27;98661.59;;;4.76;100.00
70815;BME280;58428;49.478;10.986;2023-02-01T08:33:55;98684.88;;;4.80;100.00
70815;BME280;58428;49.478;10.986;2023-02-01T08:36:22;98689.97;;;4.82;100.00
70815;BME280;58428;49.478;10.986;2023-02-01T08:38:48;98696.38;;;4.81;100.00
70815;BME280;58428;49.478;10.986;2023-02-01T08:41:18;98702.22;;;4.88;100.00
70815;BME280;58428;49.478;10.986;2023-02-01T08:43:43;98707.19;;;4.99;100.00
70815;BME280;58428;49.478;10.986;2023-02-01T08:46:11;98702.41;;;4.96;100.00
70815;BME280;58428;49.478;10.986;2023-02-01T08:48:37;98709.69;;;4.91;100.00
70815;BME280;58428;49.478;10.986;2023-02-01T08:51:10;98703.19;;;4.97;100.00
70815;BME280;58428;49.478;10.986;2023-02-01T08:53:37;98701.75;;;5.09;100.00
70815;BME280;58428;49.478;10.986;2023-02-01T08:56:05;98696.78;;;5.21;100.00
70815;BME280;58428;49.478;10.986;2023-02-01T08:58:32;98686.59;;;5.23;100.00
70815;BME280;58428;49.478;10.986;2023-02-01T09:01:03;98705.16;;;5.38;100.00
70815;BME280;58428;49.478;10.986;2023-02-01T09:03:31;98709.00;;;5.32;100.00
70815;BME280;58428;49.478;10.986;2023-02-01T09:06:02;98707.13;;;5.32;100.00
70815;BME280;58428;49.478;10.986;2023-02-01T09:08:28;98704.44;;;5.32;100.00
70815;BME280;58428;49.478;10.986;2023-02-01T09:11:01;98706.16;;;5.23;100.00
70815;BME280;58428;49.478;10.986;2023-02-01T09:13:29;98710.22;;;5.21;100.00
70815;BME280;58428;49.478;10.986;2023-02-01T09:15:56;98723.31;;;5.22;100.00
70815;BME280;58428;49.478;10.986;2023-02-01T09:18:22;98727.44;;;5.15;100.00
70815;BME280;58428;49.478;10.986;2023-02-01T09:20:49;98738.09;;;5.20;100.00
70815;BME280;58428;49.478;10.986;2023-02-01T09:23:16;98742.19;;;5.12;100.00
70815;BME280;58428;49.478;10.986;2023-02-01T09:25:41;98755.38;;;5.09;100.00
70815;BME280;58428;49.478;10.986;2023-02-01T09:28:08;98756.22;;;5.05;100.00
70815;BME280;58428;49.478;10.986;2023-02-01T09:30:34;98756.22;;;5.05;100.00
70815;BME280;58428;49.478;10.986;2023-02-01T09:33:02;98764.28;;;4.72;100.00
70815;BME280;58428;49.478;10.986;2023-02-01T09:35:28;98746.78;;;4.46;100.00
70815;BME280;58428;49.478;10.986;2023-02-01T09:37:54;98762.66;;;4.38;100.00
70815;BME280;58428;49.478;10.986;2023-02-01T09:40:21;98769.16;;;4.22;100.00
70815;BME280;58428;49.478;10.986;2023-02-01T09:42:57;98770.00;;;4.22;100.00
70815;BME280;58428;49.478;10.986;2023-02-01T09:45:43;98775.59;;;4.21;100.00
70815;BME280;58428;49.478;10.986;2023-02-01T09:48:19;98779.84;;;4.27;100.00
70815;BME280;58428;49.478;10.986;2023-02-01T09:50:54;98789.44;;;4.38;100.00
70815;BME280;58428;49.478;10.986;2023-02-01T09:53:35;98796.47;;;4.67;100.00
70815;BME280;58428;49.478;10.986;2023-02-01T09:56:07;98799.78;;;4.92;100.00
70815;BME280;58428;49.478;10.986;2023-02-01T09:58:39;98791.03;;;5.10;100.00
70815;BME280;58428;49.478;10.986;2023-02-01T10:01:24;98812.41;;;5.19;100.00
70815;BME280;58428;49.478;10.986;2023-02-01T10:04:17;98819.16;;;5.12;100.00
70815;BME280;58428;49.478;10.986;2023-02-01T10:15:24;98811.06;;;5.45;100.00
70815;BME280;58428;49.478;10.986;2023-02-01T10:26:33;98801.94;;;5.74;100.00
70815;BME280;58428;49.478;10.986;2023-02-01T10:29:03;98794.84;;;5.83;100.00
70815;BME280;58428;49.478;10.986;2023-02-01T10:31:32;98797.53;;;5.83;100.00
70815;BME280;58428;49.478;10.986;2023-02-01T10:34:14;98791.06;;;5.84;100.00
70815;BME280;58428;49.478;10.986;2023-02-01T10:36:54;98795.09;;;5.87;100.00
70815;BME280;58428;49.478;10.986;2023-02-01T10:39:20;98786.81;;;5.83;100.00
70815;BME280;58428;49.478;10.986;2023-02-01T10:41:49;98792.63;;;5.90;100.00
70815;BME280;58428;49.478;10.986;2023-02-01T10:44:26;98780.66;;;5.83;100.00
70815;BME280;58428;49.478;10.986;2023-02-01T10:46:53;98793.53;;;5.81;100.00
70815;BME280;58428;49.478;10.986;2023-02-01T10:49:24;98784.63;;;5.85;100.00
70815;BME280;58428;49.478;10.986;2023-02-01T10:52:11;98783.84;;;5.85;100.00
70815;BME280;58428;49.478;10.986;2023-02-01T10:54:39;98791.66;;;5.81;100.00
70815;BME280;58428;49.478;10.986;2023-02-01T10:59:45;98775.81;;;5.56;100.00
70815;BME280;58428;49.478;10.986;2023-02-01T11:02:20;98766.34;;;5.36;100.00
70815;BME280;58428;49.478;10.986;2023-02-01T11:05:00;98771.72;;;5.36;100.00
70815;BME280;58428;49.478;10.986;2023-02-01T11:07:26;98771.84;;;5.49;100.00
70815;BME280;58428;49.478;10.986;2023-02-01T11:09:54;98766.44;;;5.54;100.00
70815;BME280;58428;49.478;10.986;2023-02-01T11:12:36;98766.47;;;5.49;100.00
70815;BME280;58428;49.478;10.986;2023-02-01T11:18:14;98758.31;;;5.59;100.00
70815;BME280;58428;49.478;10.986;2023-02-01T11:20:41;98753.03;;;5.54;100.00
70815;BME280;58428;49.478;10.986;2023-02-01T11:23:19;98735.19;;;5.63;100.00
70815;BME280;58428;49.478;10.986;2023-02-01T11:28:23;98732.97;;;5.70;100.00
70815;BME280;58428;49.478;10.986;2023-02-01T11:30:53;98735.66;;;5.70;100.00
70815;BME280;58428;49.478;10.986;2023-02-01T11:33:24;98739.03;;;5.80;100.00
70815;BME280;58428;49.478;10.986;2023-02-01T11:35:56;98722.94;;;5.80;100.00
70815;BME280;58428;49.478;10.986;2023-02-01T11:38:29;98725.84;;;5.84;100.00
70815;BME280;58428;49.478;10.986;2023-02-01T11:41:12;98730.06;;;5.89;100.00
70815;BME280;58428;49.478;10.986;2023-02-01T11:43:50;98721.44;;;5.92;100.00
70815;BME280;58428;49.478;10.986;2023-02-01T11:46:19;98727.97;;;6.05;100.00
70815;BME280;58428;49.478;10.986;2023-02-01T11:48:51;98726.44;;;6.17;100.00
70815;BME280;58428;49.478;10.986;2023-02-01T11:51:32;98721.97;;;6.13;100.00
70815;BME280;58428;49.478;10.986;2023-02-01T11:54:10;98721.91;;;6.18;100.00
70815;BME280;58428;49.478;10.986;2023-02-01T11:56:59;98719.41;;;6.21;100.00
70815;BME280;58428;49.478;10.986;2023-02-01T12:00:00;98719.91;;;6.05;100.00
70815;BME280;58428;49.478;10.986;2023-02-01T12:05:53;98714.00;;;6.08;100.00
70815;BME280;58428;49.478;10.986;2023-02-01T12:25:35;98702.41;;;6.07;100.00
70815;BME280;58428;49.478;10.986;2023-02-01T12:39:31;98684.28;;;5.99;100.00
70815;BME280;58428;49.478;10.986;2023-02-01T12:42:08;98685.66;;;5.97;100.00
70815;BME280;58428;49.478;10.986;2023-02-01T12:44:49;98693.22;;;5.95;100.00
70815;BME280;58428;49.478;10.986;2023-02-01T12:50:03;98675.28;;;6.09;100.00
70815;BME280;58428;49.478;10.986;2023-02-01T12:52:38;98668.25;;;6.13;100.00
70815;BME280;58428;49.478;10.986;2023-02-01T12:57:47;98679.22;;;6.16;100.00
70815;BME280;58428;49.478;10.986;2023-02-01T13:00:53;98683.69;;;6.21;100.00
70815;BME280;58428;49.478;10.986;2023-02-01T13:03:52;98670.84;;;5.99;100.00
70815;BME280;58428;49.478;10.986;2023-02-01T13:06:25;98673.41;;;5.91;100.00
70815;BME280;58428;49.478;10.986;2023-02-01T13:09:00;98672.59;;;5.90;100.00
70815;BME280;58428;49.478;10.986;2023-02-01T13:11:40;98675.19;;;5.77;100.00
70815;BME280;58428;49.478;10.986;2023-02-01T13:17:16;98665.03;;;5.74;100.00
70815;BME280;58428;49.478;10.986;2023-02-01T13:19:57;98675.75;;;5.74;100.00
70815;BME280;58428;49.478;10.986;2023-02-01T13:22:30;98671.81;;;5.67;100.00
70815;BME280;58428;49.478;10.986;2023-02-01T13:24:59;98671.25;;;5.70;100.00
70815;BME280;58428;49.478;10.986;2023-02-01T13:27:27;98669.19;;;5.62;100.00
70815;BME280;58428;49.478;10.986;2023-02-01T13:33:23;98666.78;;;5.84;100.00
70815;BME280;58428;49.478;10.986;2023-02-01T13:36:10;98661.69;;;5.82;100.00
70815;BME280;58428;49.478;10.986;2023-02-01T13:39:03;98669.25;;;5.80;100.00
70815;BME280;58428;49.478;10.986;2023-02-01T13:41:59;98657.06;;;5.87;100.00
70815;BME280;58428;49.478;10.986;2023-02-01T13:44:36;98654.75;;;5.99;100.00
70815;BME280;58428;49.478;10.986;2023-02-01T13:47:13;98662.50;;;6.01;100.00
70815;BME280;58428;49.478;10.986;2023-02-01T13:49:45;98650.38;;;6.03;100.00
70815;BME280;58428;49.478;10.986;2023-02-01T13:52:42;98650.66;;;6.02;100.00
70815;BME280;58428;49.478;10.986;2023-02-01T13:57:41;98660.47;;;6.11;100.00
70815;BME280;58428;49.478;10.986;2023-02-01T14:00:31;98646.03;;;6.07;100.00
70815;BME280;58428;49.478;10.986;2023-02-01T14:08:10;98651.31;;;6.30;100.00
70815;BME280;58428;49.478;10.986;2023-02-01T14:13:57;98654.44;;;6.19;100.00
70815;BME280;58428;49.478;10.986;2023-02-01T14:16:31;98637.13;;;6.25;100.00
70815;BME280;58428;49.478;10.986;2023-02-01T14:19:03;98655.81;;;6.17;100.00
70815;BME280;58428;49.478;10.986;2023-02-01T14:21:34;98650.59;;;6.07;100.00
70815;BME280;58428;49.478;10.986;2023-02-01T14:26:56;98641.53;;;6.03;100.00
70815;BME280;58428;49.478;10.986;2023-02-01T14:29:26;98652.78;;;6.05;100.00
70815;BME280;58428;49.478;10.986;2023-02-01T14:37:23;98654.66;;;5.86;100.00
70815;BME280;58428;49.478;10.986;2023-02-01T14:47:51;98642.25;;;5.90;100.00
70815;BME280;58428;49.478;10.986;2023-02-01T14:50:43;98649.38;;;5.81;100.00
70815;BME280;58428;49.478;10.986;2023-02-01T14:56:09;98655.25;;;5.83;100.00
70815;BME280;58428;49.478;10.986;2023-02-01T14:58:47;98648.50;;;5.86;100.00
70815;BME280;58428;49.478;10.986;2023-02-01T15:01:46;98643.50;;;5.79;100.00
70815;BME280;58428;49.478;10.986;2023-02-01T15:04:18;98641.66;;;5.75;100.00
70815;BME280;58428;49.478;10.986;2023-02-01T15:07:07;98633.91;;;5.73;100.00
70815;BME280;58428;49.478;10.986;2023-02-01T15:09:46;98630.97;;;5.70;100.00
70815;BME280;58428;49.478;10.986;2023-02-01T15:17:39;98622.66;;;5.71;100.00
70815;BME280;58428;49.478;10.986;2023-02-01T15:20:25;98628.84;;;5.67;100.00
70815;BME280;58428;49.478;10.986;2023-02-01T15:23:14;98635.72;;;5.78;100.00